Time;durP1;ratioP1;P1;durP2;ratioP2;P2;SDS_P1;SDS_P2;PMS_P1;PMS_P2;Temp;Humidity;BMP_temperature;BMP_pressure;BME280_temperature;BME280_humidity;BME280_pressure;Samples;Min_cycle;Max_cycle;Signal;HPM_P1;HPM_P2
2024/03/03 00:01:33;;;;;;;13.45;5.07;;;;;;;2.73;100.00;98722.22;5021673;28;20039;-67
2024/03/03 00:03:59;;;;;;;9.93;5.00;;;;;;;2.69;100.00;98731.03;4993501;28;20045;-66
2024/03/03 00:06:24;;;;;;;9.13;4.57;;;;;;;2.63;100.00;98734.09;4997567;28;20041;-66
2024/03/03 00:08:50;;;;;;;7.53;4.63;;;;;;;2.61;100.00;98741.78;4993615;28;20117;-66
2024/03/03 00:11:15;;;;;;;9.65;4.90;;;;;;;2.57;100.00;98747.03;4976003;28;20034;-66
2024/03/03 00:13:41;;;;;;;8.05;4.47;;;;;;;2.56;100.00;98750.03;4996984;28;20034;-67
2024/03/03 00:16:06;;;;;;;8.90;4.85;;;;;;;2.54;100.00;98746.78;4977090;28;20026;-68
2024/03/03 00:18:37;;;;;;;9.32;4.50;;;;;;;2.52;100.00;98747.06;4976942;28;20033;-66
2024/03/03 00:21:04;;;;;;;9.52;4.55;;;;;;;2.52;100.00;98754.47;4981223;28;20133;-66
2024/03/03 00:23:29;;;;;;;7.90;4.50;;;;;;;2.50;100.00;98760.22;4977421;28;20037;-67
2024/03/03 00:25:55;;;;;;;8.15;4.45;;;;;;;2.44;100.00;98751.19;4976771;28;20026;-67
2024/03/03 00:28:20;;;;;;;8.18;4.47;;;;;;;2.43;100.00;98748.75;4977593;28;20519;-67
2024/03/03 00:30:46;;;;;;;9.25;4.75;;;;;;;2.43;100.00;98755.06;5009148;28;20105;-66
2024/03/03 00:33:11;;;;;;;8.20;4.75;;;;;;;2.39;100.00;98756.72;4976891;28;20069;-67
2024/03/03 00:35:36;;;;;;;9.82;5.10;;;;;;;2.37;100.00;98758.94;4996411;28;20541;-67
2024/03/03 00:38:02;;;;;;;7.88;4.32;;;;;;;2.35;100.00;98754.84;4979488;28;20035;-67
2024/03/03 00:40:28;;;;;;;10.07;5.15;;;;;;;2.33;100.00;98762.50;4997408;28;20041;-66
2024/03/03 00:42:53;;;;;;;10.45;4.85;;;;;;;2.29;100.00;98766.94;5013164;28;20049;-66
2024/03/03 00:45:19;;;;;;;10.52;5.28;;;;;;;2.27;100.00;98761.72;4994498;28;20034;-66
2024/03/03 00:47:45;;;;;;;10.90;5.18;;;;;;;2.28;100.00;98765.28;5012317;28;20030;-67
2024/03/03 00:50:11;;;;;;;9.95;5.45;;;;;;;2.22;100.00;98768.03;4996423;28;20034;-66
2024/03/03 00:52:36;;;;;;;10.27;5.00;;;;;;;2.22;100.00;98768.03;5000234;28;20542;-67
2024/03/03 00:55:03;;;;;;;9.55;5.05;;;;;;;2.20;100.00;98772.16;4995934;28;20034;-66
2024/03/03 00:57:28;;;;;;;10.82;5.57;;;;;;;2.22;100.00;98768.03;4995847;28;20049;-66
2024/03/03 00:59:53;;;;;;;9.98;5.28;;;;;;;2.20;100.00;98772.16;4996901;28;20399;-66
2024/03/03 01:02:19;;;;;;;12.15;5.88;;;;;;;2.15;100.00;98772.19;4979780;28;20049;-66
2024/03/03 01:04:44;;;;;;;9.90;4.97;;;;;;;2.10;100.00;98770.28;4993467;28;20109;-66
2024/03/03 01:07:10;;;;;;;11.52;5.85;;;;;;;2.11;100.00;98776.59;4995563;28;20030;-67
2024/03/03 01:09:35;;;;;;;7.45;4.63;;;;;;;2.08;100.00;98774.41;4997062;28;20027;-67
2024/03/03 01:12:02;;;;;;;11.30;5.18;;;;;;;2.10;100.00;98769.47;4996072;28;20406;-66
2024/03/03 01:14:28;;;;;;;11.07;5.28;;;;;;;2.05;100.00;98761.28;4989832;28;20117;-66
2024/03/03 01:16:54;;;;;;;10.18;5.10;;;;;;;2.01;100.00;98770.06;4992732;28;20062;-66
2024/03/03 01:19:19;;;;;;;12.23;5.47;;;;;;;2.03;100.00;98772.50;4990857;28;20038;-67
2024/03/03 01:21:45;;;;;;;14.68;5.82;;;;;;;1.97;100.00;98766.22;4995762;28;20035;-66
2024/03/03 01:24:10;;;;;;;9.88;5.40;;;;;;;1.95;100.00;98762.97;4998429;28;20033;-66
2024/03/03 01:26:37;;;;;;;8.88;5.38;;;;;;;1.94;100.00;98761.31;4995315;28;20069;-67
2024/03/03 01:29:02;;;;;;;8.85;5.60;;;;;;;1.90;100.00;98754.78;4960776;28;20046;-66
2024/03/03 01:31:28;;;;;;;10.23;5.82;;;;;;;1.90;100.00;98759.44;4990510;28;20035;-66
2024/03/03 01:33:53;;;;;;;9.00;5.50;;;;;;;1.88;100.00;98767.09;4987116;28;20034;-66
2024/03/03 01:36:19;;;;;;;9.95;5.28;;;;;;;1.84;100.00;98755.06;4976331;28;20041;-66
2024/03/03 01:38:44;;;;;;;9.43;5.30;;;;;;;1.84;100.00;98755.91;4972829;28;20038;-66
2024/03/03 01:41:10;;;;;;;8.68;5.30;;;;;;;1.82;100.00;98757.28;4980723;28;20042;-66
2024/03/03 01:43:35;;;;;;;9.80;5.57;;;;;;;1.85;100.00;98760.28;4996419;28;20034;-66
2024/03/03 01:46:00;;;;;;;9.77;5.68;;;;;;;1.79;100.00;98756.72;4991002;28;20039;-67
2024/03/03 01:48:26;;;;;;;10.43;5.80;;;;;;;1.77;100.00;98761.66;4994185;28;20022;-66
2024/03/03 01:50:51;;;;;;;9.90;5.30;;;;;;;1.75;100.00;98754.81;5012121;28;20046;-66
2024/03/03 01:53:17;;;;;;;9.43;5.45;;;;;;;1.74;100.00;98772.34;4995254;28;20022;-66
2024/03/03 01:55:42;;;;;;;8.95;5.03;;;;;;;1.71;100.00;98772.91;4992164;28;20031;-66
2024/03/03 01:58:08;;;;;;;9.45;5.90;;;;;;;1.70;100.00;98776.72;4959801;28;20564;-67
2024/03/03 02:00:34;;;;;;;9.80;5.53;;;;;;;1.70;100.00;98777.56;4990896;28;20113;-66
2024/03/03 02:03:05;;;;;;;11.73;5.45;;;;;;;1.70;100.00;98771.25;5017748;28;20056;-66
2024/03/03 02:05:30;;;;;;;8.65;5.63;;;;;;;1.68;100.00;98773.47;4976885;28;20031;-66
2024/03/03 02:07:56;;;;;;;9.55;5.10;;;;;;;1.69;100.00;98775.91;4978851;28;20057;-66
2024/03/03 02:10:22;;;;;;;11.00;4.97;;;;;;;1.66;100.00;98778.41;5000079;28;20038;-66
2024/03/03 02:12:48;;;;;;;8.45;5.05;;;;;;;1.64;100.00;98781.41;4979101;28;20094;-66
2024/03/03 02:15:13;;;;;;;9.90;5.35;;;;;;;1.60;100.00;98776.78;4976052;28;20599;-67
2024/03/03 02:17:39;;;;;;;10.52;5.00;;;;;;;1.57;100.00;98783.63;4963181;28;20034;-66
2024/03/03 02:20:05;;;;;;;9.25;4.50;;;;;;;1.58;100.00;98790.72;5012077;28;20038;-66
2024/03/03 02:22:30;;;;;;;9.98;4.82;;;;;;;1.58;100.00;98790.72;4978890;28;20039;-66
2024/03/03 02:24:56;;;;;;;9.15;5.00;;;;;;;1.55;100.00;98791.28;4998862;28;20483;-66
2024/03/03 02:27:22;;;;;;;12.57;5.65;;;;;;;1.51;100.00;98793.75;5001222;28;20062;-67
2024/03/03 02:29:47;;;;;;;7.85;4.97;;;;;;;1.52;100.00;98791.84;4995284;28;20090;-66
2024/03/03 02:32:13;;;;;;;8.48;4.78;;;;;;;1.48;100.00;98801.69;4981409;28;20037;-66
2024/03/03 02:34:39;;;;;;;9.55;5.40;;;;;;;1.47;100.00;98806.34;4981968;28;20061;-66
2024/03/03 02:37:05;;;;;;;9.40;5.00;;;;;;;1.45;100.00;98800.34;5026205;28;20030;-66
2024/03/03 02:39:31;;;;;;;7.65;4.75;;;;;;;1.44;100.00;98806.88;4998603;28;20030;-66
2024/03/03 02:41:56;;;;;;;9.65;5.18;;;;;;;1.40;100.00;98794.06;4998114;28;20042;-67
2024/03/03 02:44:22;;;;;;;7.38;4.75;;;;;;;1.41;100.00;98801.97;5005985;28;20037;-67
2024/03/03 02:46:48;;;;;;;8.30;4.78;;;;;;;1.37;100.00;98809.09;4991106;28;20143;-66
2024/03/03 02:49:14;;;;;;;7.47;4.28;;;;;;;1.34;100.00;98812.38;4999219;28;20042;-67
2024/03/03 02:51:40;;;;;;;9.20;4.97;;;;;;;1.33;100.00;98811.53;4982055;28;20081;-66
2024/03/03 02:54:05;;;;;;;10.88;5.50;;;;;;;1.29;100.00;98809.66;4978747;28;20023;-66
2024/03/03 02:56:31;;;;;;;11.63;5.43;;;;;;;1.31;100.00;98821.16;4977848;28;20037;-66
2024/03/03 02:58:56;;;;;;;10.68;6.05;;;;;;;1.29;100.00;98828.78;4999350;28;20026;-66
2024/03/03 03:01:21;;;;;;;8.32;5.10;;;;;;;1.28;100.00;98827.97;5003926;28;20034;-66
2024/03/03 03:03:47;;;;;;;9.82;5.07;;;;;;;1.26;100.00;98826.63;4998403;28;20030;-66
2024/03/03 03:06:13;;;;;;;8.75;5.65;;;;;;;1.27;100.00;98828.25;4981732;28;20037;-66
2024/03/03 03:08:38;;;;;;;9.23;5.57;;;;;;;1.30;100.00;98833.16;4999321;28;20037;-66
2024/03/03 03:11:05;;;;;;;8.73;5.43;;;;;;;1.24;100.00;98823.31;4999067;28;20376;-67
2024/03/03 03:13:31;;;;;;;11.18;5.38;;;;;;;1.25;100.00;98819.47;5000601;28;20018;-66
2024/03/03 03:15:56;;;;;;;9.43;5.05;;;;;;;1.19;100.00;98823.31;4981048;28;20030;-66
2024/03/03 03:18:21;;;;;;;9.25;5.07;;;;;;;1.21;100.00;98829.34;4997990;28;20091;-66
2024/03/03 03:20:47;;;;;;;7.35;4.82;;;;;;;1.19;100.00;98820.59;5025037;28;20026;-66
2024/03/03 03:23:12;;;;;;;10.57;5.57;;;;;;;1.16;100.00;98830.16;4997661;28;20041;-66
2024/03/03 03:25:38;;;;;;;9.27;4.95;;;;;;;1.16;100.00;98832.06;4996607;28;20049;-66
2024/03/03 03:28:04;;;;;;;8.02;5.30;;;;;;;1.18;100.00;98829.91;4996807;28;20181;-66
2024/03/03 03:30:29;;;;;;;9.65;5.30;;;;;;;1.16;100.00;98832.06;4997669;28;20078;-66
2024/03/03 03:32:54;;;;;;;7.22;5.13;;;;;;;1.08;100.00;98827.97;4981402;28;20436;-67
2024/03/03 03:35:22;;;;;;;9.02;5.90;;;;;;;1.10;100.00;98828.50;5008300;28;20035;-66
2024/03/03 03:37:48;;;;;;;9.68;5.45;;;;;;;1.07;100.00;98827.16;4989078;28;20031;-66
2024/03/03 03:40:14;;;;;;;9.40;4.97;;;;;;;1.04;100.00;98830.44;4992911;28;20030;-66
2024/03/03 03:42:39;;;;;;;7.78;4.82;;;;;;;1.09;100.00;98827.69;5016254;28;20077;-66
2024/03/03 03:45:05;;;;;;;7.95;5.03;;;;;;;1.05;100.00;98825.78;4976433;28;20504;-66
2024/03/03 03:47:31;;;;;;;10.60;4.93;;;;;;;1.04;100.00;98827.69;4995570;28;20037;-66
2024/03/03 03:49:56;;;;;;;8.60;4.90;;;;;;;1.00;100.00;98831.22;5022787;28;20085;-66
2024/03/03 03:52:22;;;;;;;7.13;4.95;;;;;;;0.96;100.00;98828.22;4978766;28;20419;-67
2024/03/03 03:54:47;;;;;;;9.98;5.35;;;;;;;0.93;100.00;98828.78;4994964;28;20106;-66
2024/03/03 03:57:13;;;;;;;9.90;5.10;;;;;;;0.89;100.00;98828.50;4980152;28;20041;-66
2024/03/03 03:59:38;;;;;;;7.53;4.97;;;;;;;0.90;100.00;98834.78;4995560;28;20050;-66
2024/03/03 04:02:05;;;;;;;10.00;4.57;;;;;;;0.88;100.00;98836.97;4995202;28;20061;-66
2024/03/03 04:04:34;;;;;;;9.05;4.78;;;;;;;0.88;100.00;98850.63;4989651;28;20030;-67
2024/03/03 04:07:01;;;;;;;8.55;5.18;;;;;;;0.87;100.00;98851.75;4977083;28;20037;-66
2024/03/03 04:09:27;;;;;;;7.68;4.70;;;;;;;0.80;100.00;98851.16;4963547;28;20038;-66
2024/03/03 04:11:53;;;;;;;8.88;4.80;;;;;;;0.81;100.00;98858.28;4993830;28;20035;-67
2024/03/03 04:14:18;;;;;;;8.20;4.80;;;;;;;0.80;100.00;98862.09;4983590;28;20030;-67
2024/03/03 04:16:44;;;;;;;8.18;4.55;;;;;;;0.76;100.00;98861.81;5013009;28;20118;-66
2024/03/03 04:19:10;;;;;;;7.60;4.53;;;;;;;0.75;100.00;98870.28;5006700;28;20586;-66
2024/03/03 04:21:43;;;;;;;8.40;5.07;;;;;;;0.73;100.00;98850.63;4980711;28;20026;-66
2024/03/03 04:24:08;;;;;;;9.15;5.35;;;;;;;0.70;100.00;98856.59;4995519;28;20035;-66
2024/03/03 04:26:34;;;;;;;9.98;5.22;;;;;;;0.70;100.00;98862.91;4980416;28;20039;-67
2024/03/03 04:29:00;;;;;;;8.13;4.90;;;;;;;0.65;100.00;98860.97;4998482;28;20042;-67
2024/03/03 04:31:25;;;;;;;8.90;4.22;;;;;;;0.67;100.00;98863.47;4996370;28;20046;-66
2024/03/03 04:33:51;;;;;;;8.32;4.90;;;;;;;0.65;100.00;98871.09;4996534;28;20513;-66
2024/03/03 04:36:16;;;;;;;7.90;4.40;;;;;;;0.65;100.00;98871.91;4993480;28;20506;-66
2024/03/03 04:38:42;;;;;;;8.75;4.70;;;;;;;0.62;100.00;98879.81;4994626;28;20545;-66
2024/03/03 04:41:20;;;;;;;9.88;4.80;;;;;;;0.61;100.00;98887.22;4982998;28;20430;-66
2024/03/03 04:43:45;;;;;;;7.38;4.20;;;;;;;0.63;100.00;98882.28;4980068;28;20054;-67
2024/03/03 04:46:11;;;;;;;8.23;5.00;;;;;;;0.55;100.00;98895.63;4987074;28;20499;-66
2024/03/03 04:48:37;;;;;;;8.65;4.55;;;;;;;0.50;100.00;98901.88;4994535;28;20038;-66
2024/03/03 04:51:03;;;;;;;10.45;5.10;;;;;;;0.47;100.00;98902.44;4992604;28;20097;-66
2024/03/03 04:53:29;;;;;;;8.80;4.80;;;;;;;0.46;100.00;98906.25;4977967;28;20058;-67
2024/03/03 04:55:54;;;;;;;8.82;4.88;;;;;;;0.46;100.00;98906.25;4976688;28;20042;-66
2024/03/03 04:58:20;;;;;;;9.27;4.57;;;;;;;0.45;100.00;98910.09;4979958;28;20391;-66
2024/03/03 05:00:45;;;;;;;6.05;4.50;;;;;;;0.45;100.00;98912.81;4996722;28;20407;-67
2024/03/03 05:03:11;;;;;;;8.82;3.90;;;;;;;0.46;100.00;98910.91;4997111;28;20042;-66
2024/03/03 05:05:36;;;;;;;8.00;4.28;;;;;;;0.41;100.00;98912.50;4978040;28;20400;-66
2024/03/03 05:08:02;;;;;;;8.38;4.28;;;;;;;0.39;100.00;98916.59;4979650;28;20066;-67
2024/03/03 05:10:27;;;;;;;7.88;4.57;;;;;;;0.36;100.00;98926.16;4992885;28;20042;-66
2024/03/03 05:12:53;;;;;;;8.30;4.47;;;;;;;0.37;100.00;98925.06;4995859;28;20037;-66
2024/03/03 05:15:18;;;;;;;7.82;4.40;;;;;;;0.33;100.00;98925.84;4992813;28;20034;-66
2024/03/03 05:17:44;;;;;;;7.63;4.35;;;;;;;0.33;100.00;98928.59;4992768;28;20483;-66
2024/03/03 05:20:10;;;;;;;8.07;4.32;;;;;;;0.33;100.00;98923.13;4992739;28;20030;-66
2024/03/03 05:22:36;;;;;;;7.97;4.55;;;;;;;0.34;100.00;98928.34;4993310;28;20049;-66
2024/03/03 05:25:05;;;;;;;10.88;4.47;;;;;;;0.28;100.00;98937.59;4976636;28;20537;-66
2024/03/03 05:27:33;;;;;;;6.65;4.20;;;;;;;0.28;100.00;98943.06;4993906;28;20089;-66
2024/03/03 05:30:00;;;;;;;6.57;4.05;;;;;;;0.27;100.00;98935.94;4995723;28;20108;-66
2024/03/03 05:32:25;;;;;;;8.73;4.32;;;;;;;0.26;100.00;98933.47;4964717;28;20080;-66
2024/03/03 05:34:51;;;;;;;6.85;3.78;;;;;;;0.26;100.00;98944.41;5008586;28;20578;-66
2024/03/03 05:37:16;;;;;;;6.90;3.78;;;;;;;0.22;100.00;98944.09;4976105;28;20026;-66
2024/03/03 05:39:42;;;;;;;6.60;4.18;;;;;;;0.27;100.00;98956.97;4988282;28;20057;-66
2024/03/03 05:42:11;;;;;;;5.78;3.78;;;;;;;0.26;100.00;98949.88;4984733;28;20026;-66
2024/03/03 05:44:37;;;;;;;6.45;3.72;;;;;;;0.19;100.00;98945.44;5019786;28;20033;-67
2024/03/03 05:47:02;;;;;;;10.30;3.95;;;;;;;0.18;100.00;98943.81;4995659;28;20042;-67
2024/03/03 05:49:28;;;;;;;9.55;3.72;;;;;;;0.25;100.00;98953.66;4976600;28;20038;-67
2024/03/03 05:51:57;;;;;;;38.83;19.73;;;;;;;0.16;100.00;98954.16;4979560;28;20479;-66
2024/03/03 05:54:23;;;;;;;31.30;17.13;;;;;;;0.16;100.00;98948.69;4983039;28;20549;-67
2024/03/03 05:56:49;;;;;;;22.23;13.38;;;;;;;0.13;100.00;98951.97;4966947;28;20035;-66
2024/03/03 05:59:14;;;;;;;21.45;12.07;;;;;;;0.12;100.00;98958.53;4996414;28;20031;-67
2024/03/03 06:01:48;;;;;;;20.10;10.70;;;;;;;0.10;100.00;98962.59;4979702;28;20038;-66
2024/03/03 06:04:15;;;;;;;19.38;10.40;;;;;;;0.09;100.00;98963.69;4999415;28;20096;-66
2024/03/03 06:06:40;;;;;;;16.85;9.35;;;;;;;0.07;100.00;98961.22;4995434;28;20038;-66
2024/03/03 06:09:10;;;;;;;14.30;7.95;;;;;;;0.05;100.00;98963.38;4992086;28;20446;-66
2024/03/03 06:11:37;;;;;;;13.20;8.02;;;;;;;0.07;100.00;98963.94;4983629;28;20030;-66
2024/03/03 06:14:03;;;;;;;13.38;6.95;;;;;;;0.06;100.00;98977.88;5015567;28;20443;-66
2024/03/03 06:16:28;;;;;;;13.18;7.32;;;;;;;0.04;100.00;98975.38;4995706;28;20023;-66
2024/03/03 06:18:54;;;;;;;12.77;7.63;;;;;;;-0.02;100.00;98977.25;4979594;28;20038;-66
2024/03/03 06:21:19;;;;;;;14.43;7.15;;;;;;;0.00;100.00;98982.47;4982689;28;20027;-66
2024/03/03 06:23:45;;;;;;;13.57;7.35;;;;;;;0.01;100.00;98977.81;4965083;28;20089;-66
2024/03/03 06:26:15;;;;;;;14.07;6.40;;;;;;;-0.02;100.00;98987.38;5012210;28;20039;-66
2024/03/03 06:28:44;;;;;;;13.82;6.85;;;;;;;-0.06;100.00;98991.69;4968727;28;20093;-66
2024/03/03 06:31:10;;;;;;;10.00;6.47;;;;;;;-0.10;100.00;98987.84;4998364;28;20054;-66
2024/03/03 06:33:35;;;;;;;13.57;6.60;;;;;;;-0.09;100.00;98994.94;4998607;28;20030;-66
2024/03/03 06:36:01;;;;;;;13.98;6.60;;;;;;;-0.09;100.00;98993.03;4995678;28;20031;-66
2024/03/03 06:38:26;;;;;;;11.98;5.78;;;;;;;-0.13;100.00;99002.84;4994831;28;20032;-66
2024/03/03 06:40:52;;;;;;;11.80;6.15;;;;;;;-0.13;100.00;99004.75;4999907;28;20026;-67
2024/03/03 06:43:17;;;;;;;10.18;6.13;;;;;;;-0.13;100.00;99002.00;4984077;28;20105;-66
2024/03/03 06:45:43;;;;;;;10.18;5.43;;;;;;;-0.12;100.00;99003.66;4999834;28;20031;-66
2024/03/03 06:48:08;;;;;;;10.00;5.13;;;;;;;-0.14;100.00;99011.25;4994384;28;20049;-66
2024/03/03 06:50:34;;;;;;;10.07;5.50;;;;;;;-0.17;100.00;99012.59;5009378;28;20027;-67
2024/03/03 06:53:00;;;;;;;9.95;5.82;;;;;;;-0.15;100.00;99015.91;4964304;28;20057;-66
2024/03/03 06:55:25;;;;;;;12.13;5.60;;;;;;;-0.13;100.00;99012.94;4982028;28;20439;-67
2024/03/03 06:57:50;;;;;;;12.90;6.50;;;;;;;-0.16;100.00;99019.72;4989999;28;20026;-66
2024/03/03 07:00:18;;;;;;;12.60;6.20;;;;;;;-0.19;100.00;99024.88;4995565;28;20085;-66
2024/03/03 07:05:27;;;;;;;11.15;5.97;;;;;;;-0.19;100.00;99036.63;4993086;28;20026;-67
2024/03/03 07:07:53;;;;;;;11.20;5.57;;;;;;;-0.14;100.00;99044.00;4985571;28;20053;-66
2024/03/03 07:10:18;;;;;;;10.82;5.63;;;;;;;-0.15;100.00;99050.56;4997568;28;20027;-66
2024/03/03 07:12:44;;;;;;;9.30;5.43;;;;;;;-0.15;100.00;99050.56;4999034;28;20173;-67
2024/03/03 07:15:09;;;;;;;11.13;5.57;;;;;;;-0.13;100.00;99056.59;4982043;28;20038;-67
2024/03/03 07:17:35;;;;;;;9.18;5.60;;;;;;;-0.14;100.00;99058.50;4981655;28;20041;-66
2024/03/03 07:20:03;;;;;;;8.18;4.90;;;;;;;-0.13;100.00;99071.06;4978410;28;20082;-66
2024/03/03 07:22:33;;;;;;;9.13;5.18;;;;;;;-0.12;100.00;99064.50;4995649;28;20072;-66
2024/03/03 07:24:58;;;;;;;10.15;5.40;;;;;;;-0.09;100.00;99066.72;5009926;28;20162;-67
2024/03/03 07:27:24;;;;;;;11.95;6.15;;;;;;;-0.07;100.00;99064.56;4980965;28;20030;-67
2024/03/03 07:29:49;;;;;;;9.77;5.22;;;;;;;0.01;100.00;99066.00;4994260;28;20045;-67
2024/03/03 07:32:15;;;;;;;9.77;5.30;;;;;;;0.10;100.00;99072.59;4978765;28;20034;-66
2024/03/03 07:34:43;;;;;;;10.15;5.47;;;;;;;0.17;100.00;99070.50;5010645;28;20034;-66
2024/03/03 07:37:08;;;;;;;8.52;4.90;;;;;;;0.26;100.00;99064.56;4964080;28;20030;-67
2024/03/03 07:39:33;;;;;;;10.55;5.07;;;;;;;0.36;100.00;99075.53;4978092;28;20062;-67
2024/03/03 07:41:59;;;;;;;9.65;5.47;;;;;;;0.47;100.00;99074.50;4986454;28;20038;-66
2024/03/03 07:44:24;;;;;;;7.93;4.85;;;;;;;0.63;100.00;99069.97;5022580;28;20030;-68
2024/03/03 07:46:50;;;;;;;8.73;5.15;;;;;;;0.69;100.00;99079.84;5013536;28;20033;-66
2024/03/03 07:49:15;;;;;;;10.27;5.55;;;;;;;0.80;100.00;99083.47;5017482;28;20034;-66
2024/03/03 07:51:41;;;;;;;7.20;4.60;;;;;;;0.90;100.00;99083.53;4997374;28;20038;-66
2024/03/03 07:54:07;;;;;;;10.93;5.10;;;;;;;1.03;100.00;99079.47;4988767;28;20034;-71
2024/03/03 07:56:32;;;;;;;8.38;5.00;;;;;;;1.17;100.00;99080.66;4974900;28;20029;-74
2024/03/03 07:59:03;;;;;;;12.70;5.18;;;;;;;1.27;100.00;99090.81;4977469;28;20073;-66
2024/03/03 08:01:33;;;;;;;10.07;5.43;;;;;;;1.40;100.00;99092.22;4984627;28;20034;-66
2024/03/03 08:03:59;;;;;;;9.30;5.30;;;;;;;1.53;100.00;99099.91;4997411;28;20442;-66
2024/03/03 08:06:24;;;;;;;9.50;4.97;;;;;;;1.66;100.00;99112.28;4980784;28;20030;-67
2024/03/03 08:08:50;;;;;;;9.63;5.07;;;;;;;1.78;100.00;99104.63;4993457;28;20030;-67
2024/03/03 08:11:15;;;;;;;7.72;5.20;;;;;;;1.90;100.00;99115.34;4996818;28;20045;-67
2024/03/03 08:13:40;;;;;;;9.77;5.55;;;;;;;2.04;100.00;99112.91;4996723;28;20057;-67
2024/03/03 08:16:06;;;;;;;10.93;5.50;;;;;;;2.16;100.00;99107.97;4980701;28;20030;-67
2024/03/03 08:18:32;;;;;;;10.85;5.07;;;;;;;2.31;100.00;99112.63;5002583;28;20045;-66
2024/03/03 08:20:58;;;;;;;9.18;4.70;;;;;;;2.46;100.00;99115.38;4981274;28;20037;-67
2024/03/03 08:23:24;;;;;;;10.23;4.78;;;;;;;2.57;100.00;99125.25;4978930;28;20034;-67
2024/03/03 08:25:49;;;;;;;13.40;5.25;;;;;;;2.71;100.00;99122.75;4978344;28;20132;-67
2024/03/03 08:28:15;;;;;;;8.93;4.38;;;;;;;2.84;100.00;99124.94;4987772;28;20042;-67
2024/03/03 08:30:40;;;;;;;7.97;4.45;;;;;;;2.97;100.00;99133.69;4995358;28;20055;-67
2024/03/03 08:33:06;;;;;;;11.77;4.55;;;;;;;3.11;100.00;99132.00;4996415;28;20100;-67
2024/03/03 08:35:31;;;;;;;10.55;4.53;;;;;;;3.25;100.00;99138.53;4979984;28;20034;-67
2024/03/03 08:37:57;;;;;;;8.60;4.45;;;;;;;3.39;100.00;99147.00;4980172;28;20030;-68
2024/03/03 08:40:23;;;;;;;6.38;4.07;;;;;;;3.55;100.00;99148.59;4996532;28;20567;-66
2024/03/03 08:42:49;;;;;;;7.88;4.00;;;;;;;3.70;100.00;99152.38;4971274;28;20479;-67
2024/03/03 08:45:14;;;;;;;10.07;4.28;;;;;;;3.85;100.00;99163.28;4988515;28;20053;-67
2024/03/03 08:47:40;;;;;;;6.68;3.55;;;;;;;4.03;100.00;99167.28;4979386;28;20054;-66
2024/03/03 08:50:06;;;;;;;9.10;3.92;;;;;;;4.16;100.00;99172.16;4996327;28;20026;-67
2024/03/03 08:52:32;;;;;;;9.55;3.67;;;;;;;4.32;100.00;99169.31;4974957;28;20492;-67
2024/03/03 08:54:57;;;;;;;8.20;3.50;;;;;;;4.47;100.00;99171.97;4992348;28;20072;-67
2024/03/03 08:57:23;;;;;;;6.30;3.40;;;;;;;4.63;100.00;99176.22;4993042;28;20023;-67
2024/03/03 08:59:50;;;;;;;10.20;3.70;;;;;;;4.76;100.00;99169.22;4995179;28;20038;-67
2024/03/03 09:02:15;;;;;;;10.52;3.80;;;;;;;4.89;100.00;99173.25;4992776;28;20447;-67
2024/03/03 09:04:40;;;;;;;9.38;3.80;;;;;;;5.00;100.00;99168.47;4979935;28;20022;-67
2024/03/03 09:07:09;;;;;;;10.48;4.97;;;;;;;5.09;100.00;99166.72;5008949;28;20030;-67
2024/03/03 09:09:35;;;;;;;8.20;3.78;;;;;;;5.11;100.00;99175.53;4977059;28;20034;-66
2024/03/03 09:12:00;;;;;;;9.77;4.13;;;;;;;5.21;100.00;99166.34;4992658;28;20041;-67
2024/03/03 09:14:26;;;;;;;7.18;3.40;;;;;;;5.26;100.00;99175.34;4977903;28;20034;-67
2024/03/03 09:16:51;;;;;;;6.40;3.30;;;;;;;5.35;100.00;99172.81;5017268;28;20557;-67
2024/03/03 09:19:17;;;;;;;20.20;3.80;;;;;;;5.45;100.00;99180.13;4979375;28;20042;-67
2024/03/03 09:21:42;;;;;;;9.82;5.63;;;;;;;5.58;100.00;99190.44;4976417;28;20026;-67
2024/03/03 09:24:08;;;;;;;9.02;4.00;;;;;;;5.66;100.00;99202.75;4976886;28;20037;-67
2024/03/03 09:26:33;;;;;;;7.18;3.72;;;;;;;5.72;100.00;99207.91;5014126;28;20042;-67
2024/03/03 09:28:59;;;;;;;7.15;3.38;;;;;;;5.80;100.00;99211.94;4992016;28;20031;-66
2024/03/03 09:31:24;;;;;;;15.20;5.47;;;;;;;5.89;100.00;99223.13;4963553;28;20100;-67
2024/03/03 09:33:50;;;;;;;12.18;5.40;;;;;;;5.92;100.00;99219.78;5004046;28;20455;-67
2024/03/03 09:36:15;;;;;;;10.00;5.30;;;;;;;6.04;100.00;99221.03;4996631;28;20035;-67
2024/03/03 09:38:41;;;;;;;10.00;4.50;;;;;;;6.16;100.00;99225.31;4980314;28;20037;-67
2024/03/03 09:41:07;;;;;;;6.70;3.78;;;;;;;6.23;100.00;99223.00;5003322;28;20037;-67
2024/03/03 09:43:37;;;;;;;6.15;3.38;;;;;;;6.22;100.00;99226.88;4967284;28;20042;-66
2024/03/03 09:46:04;;;;;;;7.07;2.70;;;;;;;6.17;100.00;99226.94;4980598;28;20035;-67
2024/03/03 09:48:29;;;;;;;3.67;2.13;;;;;;;6.30;100.00;99233.66;4964586;28;20038;-67
2024/03/03 09:50:55;;;;;;;5.38;1.98;;;;;;;6.30;100.00;99228.97;4999487;28;20391;-67
2024/03/03 09:53:20;;;;;;;5.38;1.50;;;;;;;6.37;100.00;99234.09;4980441;28;20129;-67
2024/03/03 09:55:46;;;;;;;5.63;1.50;;;;;;;6.43;100.00;99230.16;4979999;28;20035;-67
2024/03/03 09:58:12;;;;;;;3.42;1.42;;;;;;;6.48;100.00;99230.09;4979729;28;20398;-67
2024/03/03 10:00:38;;;;;;;4.18;1.48;;;;;;;6.56;100.00;99236.88;5016766;28;20038;-67
2024/03/03 10:03:04;;;;;;;4.90;1.63;;;;;;;6.68;100.00;99238.03;4993569;28;20041;-67
2024/03/03 10:05:30;;;;;;;4.63;1.35;;;;;;;6.74;100.00;99238.78;4996835;28;20177;-67
2024/03/03 10:08:00;;;;;;;4.82;1.25;;;;;;;6.82;100.00;99240.06;4983028;28;20482;-67
2024/03/03 10:10:26;;;;;;;3.33;1.48;;;;;;;6.87;100.00;99239.97;4996109;28;20069;-67
2024/03/03 10:12:51;;;;;;;2.50;1.58;;;;;;;6.90;100.00;99237.44;4980581;28;20541;-67
2024/03/03 10:15:18;;;;;;;4.15;1.40;;;;;;;7.03;100.00;99243.31;4998082;28;20031;-67
2024/03/03 10:17:44;;;;;;;4.43;1.90;;;;;;;7.13;100.00;99252.25;4981900;28;20462;-67
2024/03/03 10:20:09;;;;;;;5.55;2.15;;;;;;;7.17;100.00;99255.22;4997810;28;20027;-67
2024/03/03 10:22:35;;;;;;;5.55;1.83;;;;;;;7.24;100.00;99247.34;4982120;28;20035;-67
2024/03/03 10:25:11;;;;;;;4.93;1.83;;;;;;;7.38;100.00;99253.75;5012140;28;20031;-67
2024/03/03 10:27:44;;;;;;;4.18;1.60;;;;;;;7.43;100.00;99252.81;4981824;28;20049;-67
2024/03/03 10:30:12;;;;;;;6.00;1.67;;;;;;;7.54;100.00;99268.09;4995774;28;20086;-67
2024/03/03 10:32:37;;;;;;;5.90;1.90;;;;;;;7.63;100.00;99282.03;4967319;28;20506;-68
2024/03/03 10:35:04;;;;;;;3.97;1.80;;;;;;;7.73;100.00;99292.91;4982604;28;20105;-67
2024/03/03 10:37:30;;;;;;;4.95;1.63;;;;;;;7.81;100.00;99294.13;4978764;28;20519;-67
2024/03/03 10:39:55;;;;;;;5.50;2.10;;;;;;;7.88;100.00;99285.44;4980197;28;20027;-67
2024/03/03 10:42:22;;;;;;;3.95;1.70;;;;;;;7.98;100.00;99282.47;5001967;28;20026;-77
2024/03/03 10:44:48;;;;;;;7.35;3.05;;;;;;;8.03;100.00;99291.50;4968767;28;20038;-72
2024/03/03 10:47:13;;;;;;;4.78;1.70;;;;;;;8.07;100.00;99286.97;5011301;28;20042;-67
2024/03/03 10:49:39;;;;;;;4.30;1.90;;;;;;;8.17;100.00;99297.03;4999203;28;20442;-67
2024/03/03 10:52:07;;;;;;;3.03;1.55;;;;;;;8.28;100.00;99297.63;4997946;28;20443;-67
2024/03/03 10:54:33;;;;;;;6.50;1.90;;;;;;;8.34;100.00;99301.13;4995294;28;20038;-67
2024/03/03 10:56:59;;;;;;;5.18;2.13;;;;;;;8.44;100.00;99300.91;4981558;28;20081;-72
2024/03/03 10:59:26;;;;;;;4.28;1.55;;;;;;;8.55;100.00;99307.06;4995175;28;20511;-72
2024/03/03 11:01:51;;;;;;;7.63;2.00;;;;;;;8.56;100.00;99304.00;4998641;28;20044;-73
2024/03/03 11:04:17;;;;;;;3.72;1.40;;;;;;;8.62;100.00;99299.97;5021828;28;20572;-72
2024/03/03 11:06:42;;;;;;;5.25;1.45;;;;;;;8.71;100.00;99302.81;4998737;28;20034;-68
2024/03/03 11:09:09;;;;;;;8.77;2.15;;;;;;;8.78;100.00;99306.00;4981082;28;20034;-68
2024/03/03 11:11:34;;;;;;;5.47;1.55;;;;;;;8.87;100.00;99311.59;4961970;28;20030;-68
2024/03/03 11:14:12;;;;;;;9.93;2.05;;;;;;;8.92;100.00;99300.41;4981840;28;20030;-68
2024/03/03 11:16:39;;;;;;;5.60;1.70;;;;;;;8.97;100.00;99305.84;4996668;28;20034;-69
2024/03/03 11:19:18;;;;;;;5.30;1.88;;;;;;;9.02;100.00;99305.69;4988401;28;20100;-68
2024/03/03 11:21:50;;;;;;;3.45;1.48;;;;;;;9.12;100.00;99311.00;4981702;28;20077;-68
2024/03/03 11:24:32;;;;;;;5.67;1.53;;;;;;;9.23;100.00;99308.00;4981860;28;20042;-68
2024/03/03 11:27:04;;;;;;;4.90;1.27;;;;;;;9.35;100.00;99306.28;4997826;28;20042;-68